Airfield :
LOGIN :

Register | Disclaimer

   EN    FR    IT 

 










Legend :    VFR   Marginal VFR   IFR   Intensive IFR   Very Intensive IFR
Visi :
Ceiling :
>= 8 km
>= 3000ft
5 to 8 km
1000 to 3000 ft
1500m to 5 km
500 to 1000 ft
800 to 1500m
200 to 500 ft
< 800m
< 200 ft
Symbols :   Thunderstorms  Fog  Heavy snow  Heavy precipitations  Wind > 20 kt
SIGMETs :     Misc.  Thunderstorms  Icing  Turbulence  Mountain Waves  Volcanic Ashes







- Airport Elevation : 529 ft
- IATA code : CHR
- Download approach charts


LFLX - Chateauroux

CURRENT METAR :
  • 170730Z AUTO 24012KT 9999 FEW013 19/16 Q1021 TEMPO BKN007

EXPIRED METARs :
  • 170700Z AUTO 23011KT CAVOK 19/15 Q1021 TEMPO 4000 BR BKN007
  • 170630Z AUTO 21009KT CAVOK 18/15 Q1020 TEMPO 4000 BR BKN007
  • 170600Z AUTO 22007KT CAVOK 17/14 Q1020 TEMPO 4000 BR BKN004
  • 170530Z AUTO 20006KT CAVOK 16/14 Q1020 TEMPO 4000 BR BKN004
  • 170500Z AUTO 19005KT CAVOK 15/13 Q1020 NOSIG

TAF TAF LFLX
Valid from the 17 at 06:00 until the 18 at 12:00 UTC


170500Z 1706/1812 20004KT 9999 FEW007
PROB40
TEMPO 1706/1709 BKN007
PROB30
TEMPO 1706/1708 4000 BR BKN004
TEMPO 1803/1808 BKN006
PROB30
TEMPO 1804/1807 0800 BCFG BKN002
TEMPO 1808/1812 4000 RA BKN006 SCT020TCU
PROB30
TEMPO 1810/1812 2000 TSRA BKN004 SCT015CB
No reported NOTAMs for that airfield.



MET'MAP, your aeronautical weather chart ! - Copyright ORBIFLY December 2007 - Disclaimer

ORBIFLY MET'MAP TEAM :

Programming & Development : Alexandra Zaïnal
Concept & Development : Baudouin d'Aumeries
Co-Development & Prog : Marc-Olivier Méhu
Technical & hardware support : Manuel Goepfert

Contact : metmap@orbifly.com




SOURCES & CREDITS :

   NOAA